createdAt,value
2019-05-18T00:02:32.866Z,62.60
2019-05-18T00:05:07.709Z,62.60
2019-05-18T00:07:41.438Z,62.70
2019-05-18T00:10:15.204Z,62.80
2019-05-18T00:12:49.017Z,62.90
2019-05-18T00:15:22.846Z,63.00
2019-05-18T00:17:56.715Z,63.00
2019-05-18T00:20:30.464Z,63.20
2019-05-18T00:23:04.410Z,63.30
2019-05-18T00:25:38.302Z,63.50
2019-05-18T00:28:12.091Z,63.60
2019-05-18T00:30:45.757Z,63.70
2019-05-18T00:33:19.388Z,63.80
2019-05-18T00:35:53.259Z,64.00
2019-05-18T00:38:27.088Z,64.10
2019-05-18T00:41:00.881Z,64.40
2019-05-18T00:43:34.998Z,64.60
2019-05-18T00:46:08.869Z,64.80
2019-05-18T00:48:42.694Z,65.00
2019-05-18T00:51:16.452Z,64.60
2019-05-18T00:53:50.455Z,64.60
2019-05-18T00:56:24.254Z,64.80
2019-05-18T00:58:58.194Z,64.90
2019-05-18T01:01:32.089Z,65.00
2019-05-18T01:04:05.819Z,65.60
2019-05-18T01:06:39.508Z,65.30
2019-05-18T01:09:13.355Z,65.50
2019-05-18T01:11:47.200Z,65.60
2019-05-18T01:14:21.113Z,65.40
2019-05-18T01:16:54.860Z,65.90
2019-05-18T01:19:28.564Z,66.00
2019-05-18T01:22:02.354Z,66.40
2019-05-18T01:24:36.089Z,66.50
2019-05-18T01:27:09.932Z,66.50
2019-05-18T01:29:43.686Z,66.50
2019-05-18T01:32:17.392Z,66.40
2019-05-18T01:34:51.103Z,66.40
2019-05-18T01:37:24.939Z,66.70
2019-05-18T01:39:58.760Z,66.60
2019-05-18T01:42:32.543Z,66.80
2019-05-18T01:45:16.525Z,66.90
2019-05-18T01:47:42.948Z,67.10
2019-05-18T01:50:17.324Z,67.10
2019-05-18T01:52:51.107Z,67.10
2019-05-18T01:55:24.858Z,67.10
2019-05-18T01:57:58.860Z,66.70
2019-05-18T02:00:32.639Z,66.60
2019-05-18T02:03:06.289Z,66.60
2019-05-18T02:05:40.159Z,66.70
2019-05-18T02:08:13.922Z,66.80
2019-05-18T02:10:47.802Z,66.60
2019-05-18T02:13:21.553Z,66.70
2019-05-18T02:15:55.341Z,66.80
2019-05-18T02:18:29.493Z,66.50
2019-05-18T02:21:03.461Z,66.30
2019-05-18T02:23:37.112Z,66.40
2019-05-18T02:26:11.099Z,66.50
2019-05-18T02:28:44.878Z,66.60
2019-05-18T02:31:18.728Z,66.40
2019-05-18T02:33:52.592Z,66.70
2019-05-18T02:36:26.419Z,67.20
2019-05-18T02:39:00.156Z,67.30
2019-05-18T02:41:33.975Z,67.50
2019-05-18T02:44:07.599Z,67.60
2019-05-18T02:46:41.320Z,67.80
2019-05-18T02:49:15.033Z,68.30
2019-05-18T02:51:48.758Z,68.50
2019-05-18T02:54:22.623Z,68.80
2019-05-18T02:56:56.382Z,69.10
2019-05-18T02:59:30.055Z,69.00
2019-05-18T03:02:03.702Z,70.60
2019-05-18T03:04:37.506Z,70.10
2019-05-18T03:07:11.234Z,70.70
2019-05-18T03:09:45.216Z,70.60
2019-05-18T03:12:19.083Z,70.60
2019-05-18T03:14:52.792Z,72.10
2019-05-18T03:17:26.604Z,71.90
2019-05-18T03:20:00.674Z,72.00
2019-05-18T03:22:34.643Z,72.00
2019-05-18T03:25:09.720Z,72.20
2019-05-18T03:27:43.424Z,72.70
2019-05-18T03:30:17.407Z,73.10
2019-05-18T03:32:51.117Z,73.70
2019-05-18T03:35:25.170Z,73.80
2019-05-18T03:37:58.944Z,73.70
2019-05-18T03:40:32.776Z,73.90
2019-05-18T03:43:06.634Z,73.30
2019-05-18T03:45:40.336Z,73.50
2019-05-18T03:48:14.027Z,74.50
2019-05-18T03:50:47.925Z,73.90
2019-05-18T03:53:21.591Z,74.10
2019-05-18T03:55:55.359Z,74.30
2019-05-18T03:58:29.167Z,73.90
2019-05-18T04:01:03.375Z,76.10
2019-05-18T04:03:37.081Z,75.10
2019-05-18T04:06:10.765Z,75.40
2019-05-18T04:08:44.549Z,74.90
2019-05-18T04:11:18.394Z,75.30
2019-05-18T04:13:52.202Z,74.60
2019-05-18T04:16:26.339Z,74.30
2019-05-18T04:19:00.062Z,74.60
2019-05-18T04:21:33.821Z,74.40
2019-05-18T04:24:07.568Z,74.40
2019-05-18T04:26:41.300Z,74.50
2019-05-18T04:29:14.942Z,74.20
2019-05-18T04:31:48.687Z,74.50
2019-05-18T04:34:22.315Z,74.40
2019-05-18T04:36:56.042Z,74.60
2019-05-18T04:39:29.764Z,74.50
2019-05-18T04:42:03.472Z,75.10
2019-05-18T04:44:37.027Z,75.00
2019-05-18T04:47:10.768Z,75.60
2019-05-18T04:50:01.852Z,75.50
2019-05-18T04:52:20.371Z,75.80
2019-05-18T04:54:54.046Z,75.20
2019-05-18T04:57:27.768Z,75.50
2019-05-18T05:00:01.449Z,75.20
2019-05-18T05:02:35.185Z,75.00
2019-05-18T05:05:09.402Z,74.70
2019-05-18T05:07:43.168Z,74.40
2019-05-18T05:10:17.056Z,73.70
2019-05-18T05:12:50.828Z,73.10
2019-05-18T05:15:24.580Z,72.60
2019-05-18T05:17:58.262Z,72.60
2019-05-18T05:20:31.914Z,72.50
2019-05-18T05:23:05.521Z,72.50
2019-05-18T05:25:39.281Z,72.50
2019-05-18T05:28:13.023Z,71.90
2019-05-18T05:30:47.051Z,71.50
2019-05-18T05:33:20.733Z,71.10
2019-05-18T05:35:54.462Z,70.80
2019-05-18T05:38:28.189Z,70.50
2019-05-18T05:41:01.897Z,70.30
2019-05-18T05:43:35.675Z,70.30
2019-05-18T05:46:09.376Z,70.60
2019-05-18T05:48:43.095Z,70.80
2019-05-18T05:51:16.839Z,70.70
2019-05-18T05:53:50.567Z,70.30
2019-05-18T05:56:24.356Z,70.30
2019-05-18T05:58:58.073Z,70.60
2019-05-18T06:01:31.802Z,70.50
2019-05-18T06:04:05.535Z,70.10
2019-05-18T06:06:39.207Z,69.40
2019-05-18T06:09:12.963Z,69.10
2019-05-18T06:11:46.774Z,68.30
2019-05-18T06:14:20.363Z,67.80
2019-05-18T06:16:54.120Z,67.40
2019-05-18T06:19:27.739Z,66.70
2019-05-18T06:22:01.457Z,65.70
2019-05-18T06:24:35.347Z,65.10
2019-05-18T06:27:09.038Z,63.70
2019-05-18T06:29:42.826Z,62.40
2019-05-18T06:32:16.539Z,61.90
2019-05-18T06:34:50.221Z,60.80
2019-05-18T06:37:23.936Z,60.50
2019-05-18T06:39:57.614Z,59.90
2019-05-18T06:42:31.356Z,58.90
2019-05-18T06:45:05.431Z,58.50
2019-05-18T06:47:39.156Z,57.70
2019-05-18T06:50:13.464Z,57.80
2019-05-18T06:52:47.480Z,58.30
2019-05-18T06:55:21.116Z,57.90
2019-05-18T06:57:57.029Z,57.80
2019-05-18T07:00:30.678Z,58.30
2019-05-18T07:03:04.560Z,58.20
2019-05-18T07:05:38.193Z,58.20
2019-05-18T07:08:11.797Z,58.60
2019-05-18T07:10:49.141Z,58.90
2019-05-18T07:13:22.882Z,59.20
2019-05-18T07:15:57.283Z,58.70
2019-05-18T07:18:31.123Z,58.90
2019-05-18T07:21:04.681Z,59.30
2019-05-18T07:23:38.362Z,59.60
2019-05-18T07:26:12.091Z,59.90
2019-05-18T07:28:45.733Z,59.50
2019-05-18T07:31:19.343Z,59.10
2019-05-18T07:33:52.965Z,58.80
2019-05-18T07:36:26.732Z,58.00
2019-05-18T07:39:00.576Z,56.90
2019-05-18T07:41:45.876Z,57.30
2019-05-18T07:44:09.617Z,57.80
2019-05-18T07:46:43.256Z,57.40
2019-05-18T07:49:16.882Z,56.80
2019-05-18T07:51:50.609Z,56.30
2019-05-18T07:54:24.317Z,56.20
2019-05-18T07:56:57.981Z,54.50
2019-05-18T07:59:32.014Z,54.40
2019-05-18T08:02:06.128Z,53.20
2019-05-18T08:04:39.947Z,52.70
2019-05-18T08:07:13.654Z,52.70
2019-05-18T08:09:47.348Z,51.90
2019-05-18T08:12:21.091Z,51.60
2019-05-18T08:14:54.765Z,51.30
2019-05-18T08:17:28.471Z,51.00
2019-05-18T08:20:02.181Z,51.30
2019-05-18T08:22:35.843Z,51.30
2019-05-18T08:25:10.089Z,51.20
2019-05-18T08:27:43.727Z,49.70
2019-05-18T08:30:17.714Z,49.00
2019-05-18T08:32:51.536Z,49.00
2019-05-18T08:35:27.360Z,48.50
2019-05-18T08:38:00.704Z,47.70
2019-05-18T08:40:34.302Z,47.90
2019-05-18T08:43:07.953Z,48.40
2019-05-18T08:45:41.590Z,47.90
2019-05-18T08:48:15.240Z,47.20
2019-05-18T08:50:48.933Z,46.40
2019-05-18T08:53:22.734Z,45.90
2019-05-18T08:55:56.434Z,45.60
2019-05-18T08:58:30.148Z,45.70
2019-05-18T09:01:05.150Z,45.90
2019-05-18T09:03:38.929Z,45.70
2019-05-18T09:06:12.644Z,45.80
2019-05-18T09:08:48.163Z,45.60
2019-05-18T09:11:21.683Z,45.60
2019-05-18T09:13:55.413Z,45.70
2019-05-18T09:16:29.098Z,45.40
2019-05-18T09:19:02.875Z,44.40
2019-05-18T09:21:36.536Z,43.90
2019-05-18T09:24:10.359Z,43.00
2019-05-18T09:26:44.057Z,43.60
2019-05-18T09:29:17.824Z,44.30
2019-05-18T09:31:51.439Z,42.20
2019-05-18T09:34:25.136Z,41.70
2019-05-18T09:36:58.786Z,42.70
2019-05-18T09:39:32.466Z,43.50
2019-05-18T09:42:06.127Z,41.00
2019-05-18T09:44:39.955Z,42.60
2019-05-18T09:47:13.671Z,42.70
2019-05-18T09:49:47.501Z,42.10
2019-05-18T09:52:21.181Z,41.70
2019-05-18T09:54:54.938Z,42.50
2019-05-18T09:57:28.607Z,40.10
2019-05-18T10:00:02.607Z,40.70
2019-05-18T10:02:36.493Z,41.60
2019-05-18T10:05:10.541Z,41.60
2019-05-18T10:07:44.165Z,41.80
2019-05-18T10:10:18.043Z,41.40
2019-05-18T10:12:51.706Z,41.10
2019-05-18T10:15:25.534Z,41.30
2019-05-18T10:17:59.116Z,41.50
2019-05-18T10:20:32.876Z,40.50
2019-05-18T10:23:12.837Z,40.70
2019-05-18T10:25:41.982Z,40.20
2019-05-18T10:28:15.709Z,40.00
2019-05-18T10:30:49.519Z,40.00
2019-05-18T10:33:23.391Z,40.30
2019-05-18T10:35:57.049Z,40.30
2019-05-18T10:38:30.719Z,40.10
2019-05-18T10:41:04.434Z,39.50
2019-05-18T10:43:38.032Z,39.50
2019-05-18T10:46:12.022Z,39.30
2019-05-18T10:48:45.891Z,39.90
2019-05-18T10:51:19.559Z,39.40
2019-05-18T10:53:53.342Z,38.90
2019-05-18T10:56:27.190Z,38.80
2019-05-18T10:59:01.017Z,38.90
2019-05-18T11:01:34.765Z,38.70
2019-05-18T11:04:08.674Z,38.50
2019-05-18T11:06:42.338Z,38.80
2019-05-18T11:09:16.012Z,37.80
2019-05-18T11:11:49.718Z,38.30
2019-05-18T11:14:23.557Z,37.90
2019-05-18T11:16:57.270Z,38.50
2019-05-18T11:19:31.254Z,37.10
2019-05-18T11:22:05.138Z,38.00
2019-05-18T11:24:39.148Z,36.90
2019-05-18T11:27:12.989Z,36.60
2019-05-18T11:29:46.690Z,36.60
2019-05-18T11:32:20.420Z,36.00
2019-05-18T11:34:54.391Z,36.60
2019-05-18T11:37:28.018Z,37.20
2019-05-18T11:40:01.830Z,37.20
2019-05-18T11:42:35.746Z,37.10
2019-05-18T11:45:10.709Z,37.10
2019-05-18T11:47:44.531Z,37.10
2019-05-18T11:50:18.740Z,37.40
2019-05-18T11:52:52.507Z,38.20
2019-05-18T11:55:26.494Z,37.60
2019-05-18T11:58:00.401Z,37.20
2019-05-18T12:00:34.481Z,37.20
2019-05-18T12:03:08.522Z,37.30
2019-05-18T12:05:42.416Z,37.90
2019-05-18T12:08:16.016Z,37.30
2019-05-18T12:10:49.674Z,37.80
2019-05-18T12:13:23.356Z,38.30
2019-05-18T12:15:57.050Z,37.20
2019-05-18T12:18:30.795Z,37.10
2019-05-18T12:21:04.628Z,36.70
2019-05-18T12:23:38.310Z,35.90
2019-05-18T12:26:12.094Z,36.30
2019-05-18T12:28:48.909Z,37.20
2019-05-18T12:31:22.609Z,36.00
2019-05-18T12:33:56.277Z,36.80
2019-05-18T12:36:30.021Z,36.60
2019-05-18T12:39:05.261Z,36.30
2019-05-18T12:41:38.994Z,35.90
2019-05-18T12:44:12.555Z,36.40
2019-05-18T12:46:46.212Z,36.60
2019-05-18T12:49:20.699Z,36.80
2019-05-18T12:51:54.336Z,36.70
2019-05-18T12:54:34.023Z,36.40
2019-05-18T12:57:03.243Z,35.20
2019-05-18T12:59:36.799Z,36.90
2019-05-18T13:02:10.560Z,37.40
2019-05-18T13:04:44.123Z,37.20
2019-05-18T13:07:17.817Z,37.10
2019-05-18T13:09:51.727Z,36.70
2019-05-18T13:12:25.478Z,36.20
2019-05-18T13:14:59.271Z,35.70
2019-05-18T13:17:32.948Z,35.40
2019-05-18T13:20:07.739Z,35.50
2019-05-18T13:22:41.590Z,35.00
2019-05-18T13:25:15.741Z,35.90
2019-05-18T13:27:50.530Z,36.00
2019-05-18T13:30:27.019Z,35.50
2019-05-18T13:33:00.663Z,35.20
2019-05-18T13:35:34.470Z,34.80
2019-05-18T13:38:08.166Z,34.40
2019-05-18T13:40:41.938Z,34.80
2019-05-18T13:43:15.607Z,34.50
2019-05-18T13:45:49.208Z,33.70
2019-05-18T13:48:22.878Z,32.90
2019-05-18T13:50:56.565Z,34.00
2019-05-18T13:53:30.149Z,34.20
2019-05-18T13:56:03.990Z,33.30
2019-05-18T13:58:37.880Z,34.00
2019-05-18T14:01:11.596Z,34.30
2019-05-18T14:03:45.317Z,35.60
2019-05-18T14:06:18.888Z,33.80
2019-05-18T14:08:52.625Z,34.00
2019-05-18T14:11:26.272Z,34.40
2019-05-18T14:13:59.995Z,34.50
2019-05-18T14:16:34.964Z,34.20
2019-05-18T14:19:08.788Z,33.20
2019-05-18T14:21:42.458Z,33.40
2019-05-18T14:24:16.053Z,33.10
2019-05-18T14:26:49.913Z,32.40
2019-05-18T14:29:23.591Z,32.40
2019-05-18T14:31:57.346Z,33.00
2019-05-18T14:34:31.047Z,33.30
2019-05-18T14:37:05.717Z,33.40
2019-05-18T14:39:39.406Z,33.60
2019-05-18T14:42:13.127Z,34.50
2019-05-18T14:44:47.009Z,34.10
2019-05-18T14:47:20.720Z,34.20
2019-05-18T14:49:54.460Z,34.60
2019-05-18T14:52:28.107Z,34.50
2019-05-18T14:55:01.775Z,34.30
2019-05-18T14:57:35.621Z,34.30
2019-05-18T15:00:09.977Z,33.90
2019-05-18T15:02:43.701Z,33.80
2019-05-18T15:05:17.658Z,33.30
2019-05-18T15:07:53.082Z,33.50
2019-05-18T15:10:26.713Z,33.00
2019-05-18T15:13:00.508Z,33.90
2019-05-18T15:15:34.239Z,33.80
2019-05-18T15:18:07.903Z,32.80
2019-05-18T15:20:41.677Z,33.40
2019-05-18T15:23:15.317Z,33.90
2019-05-18T15:25:51.084Z,34.80
2019-05-18T15:28:24.326Z,35.00
2019-05-18T15:30:57.944Z,35.40
2019-05-18T15:33:31.640Z,35.40
2019-05-18T15:36:05.256Z,35.40
2019-05-18T15:38:38.974Z,35.40
2019-05-18T15:41:12.634Z,34.80
2019-05-18T15:43:46.672Z,35.10
2019-05-18T15:46:20.388Z,35.50
2019-05-18T15:48:54.256Z,35.70
2019-05-18T15:51:27.885Z,35.50
2019-05-18T15:54:01.762Z,34.80
2019-05-18T15:56:35.405Z,35.20
2019-05-18T15:59:09.093Z,35.10
2019-05-18T16:01:42.758Z,35.30
2019-05-18T16:04:16.389Z,35.50
2019-05-18T16:06:50.187Z,35.80
2019-05-18T16:09:23.867Z,35.50
2019-05-18T16:11:57.711Z,35.10
2019-05-18T16:14:31.452Z,35.50
2019-05-18T16:17:05.134Z,35.40
2019-05-18T16:19:38.782Z,35.70
2019-05-18T16:22:12.624Z,35.00
2019-05-18T16:24:46.293Z,34.70
2019-05-18T16:27:19.946Z,35.00
2019-05-18T16:29:53.651Z,34.90
2019-05-18T16:32:27.372Z,35.20
2019-05-18T16:35:00.966Z,34.30
2019-05-18T16:37:34.625Z,34.70
2019-05-18T16:40:08.597Z,34.90
2019-05-18T16:42:42.259Z,35.00
2019-05-18T16:45:16.491Z,35.50
2019-05-18T16:47:50.166Z,35.30
2019-05-18T16:50:23.970Z,35.40
2019-05-18T16:52:57.763Z,35.60
2019-05-18T16:55:31.763Z,35.10
2019-05-18T16:58:07.329Z,35.40
2019-05-18T17:00:41.086Z,35.30
2019-05-18T17:03:14.695Z,35.50
2019-05-18T17:05:48.380Z,35.40
2019-05-18T17:08:22.187Z,35.70
2019-05-18T17:10:55.855Z,35.60
2019-05-18T17:13:29.973Z,35.70
2019-05-18T17:16:03.679Z,35.50
2019-05-18T17:18:37.339Z,35.60
2019-05-18T17:21:11.009Z,35.80
2019-05-18T17:23:44.702Z,36.10
2019-05-18T17:26:18.488Z,36.20
2019-05-18T17:28:52.154Z,36.60
2019-05-18T17:31:25.791Z,36.90
2019-05-18T17:33:59.423Z,37.60
2019-05-18T17:36:33.100Z,37.80
2019-05-18T17:39:07.670Z,38.00
2019-05-18T17:41:41.367Z,39.20
2019-05-18T17:44:15.025Z,38.40
2019-05-18T17:46:48.925Z,38.70
2019-05-18T17:49:26.838Z,38.70
2019-05-18T17:51:58.020Z,38.70
2019-05-18T17:54:31.687Z,38.80
2019-05-18T17:57:08.877Z,39.10
2019-05-18T17:59:40.900Z,39.20
2019-05-18T18:02:14.512Z,39.20
2019-05-18T18:04:48.204Z,39.40
2019-05-18T18:07:21.842Z,39.40
2019-05-18T18:09:55.491Z,39.50
2019-05-18T18:12:29.151Z,39.70
2019-05-18T18:15:03.392Z,39.70
2019-05-18T18:17:37.075Z,39.80
2019-05-18T18:20:11.533Z,40.10
2019-05-18T18:22:45.157Z,40.10
2019-05-18T18:25:18.875Z,40.20
2019-05-18T18:27:52.594Z,40.30
2019-05-18T18:30:28.177Z,40.30
2019-05-18T18:33:01.791Z,40.40
2019-05-18T18:35:35.494Z,40.50
2019-05-18T18:38:09.123Z,40.60
2019-05-18T18:40:43.512Z,40.80
2019-05-18T18:43:17.098Z,40.80
2019-05-18T18:45:50.859Z,40.90
2019-05-18T18:48:26.392Z,41.60
2019-05-18T18:51:00.036Z,41.70
2019-05-18T18:53:33.768Z,41.60
2019-05-18T18:56:07.575Z,41.90
2019-05-18T18:58:41.435Z,42.10
2019-05-18T19:01:15.451Z,42.40
2019-05-18T19:03:49.149Z,42.50
2019-05-18T19:06:22.845Z,43.00
2019-05-18T19:08:56.540Z,43.00
2019-05-18T19:11:30.239Z,43.30
2019-05-18T19:14:04.098Z,43.70
2019-05-18T19:16:37.856Z,44.10
2019-05-18T19:19:11.539Z,44.40
2019-05-18T19:21:45.232Z,44.50
2019-05-18T19:24:18.878Z,44.60
2019-05-18T19:26:52.640Z,44.80
2019-05-18T19:29:26.248Z,45.00
2019-05-18T19:32:00.037Z,45.50
2019-05-18T19:34:33.808Z,46.10
2019-05-18T19:37:07.487Z,46.10
2019-05-18T19:39:41.290Z,46.10
2019-05-18T19:42:14.989Z,46.60
2019-05-18T19:44:48.767Z,47.20
2019-05-18T19:47:22.446Z,47.20
2019-05-18T19:49:56.596Z,47.20
2019-05-18T19:52:30.364Z,47.50
2019-05-18T19:55:04.445Z,47.50
2019-05-18T19:57:38.004Z,47.60
2019-05-18T20:00:12.234Z,47.80
2019-05-18T20:02:46.055Z,47.90
2019-05-18T20:05:20.110Z,48.20
2019-05-18T20:07:53.786Z,48.40
2019-05-18T20:10:27.374Z,48.50
2019-05-18T20:13:01.057Z,48.60
2019-05-18T20:15:34.727Z,48.90
2019-05-18T20:18:08.616Z,49.00
2019-05-18T20:20:42.305Z,49.30
2019-05-18T20:23:15.988Z,49.50
2019-05-18T20:25:49.693Z,49.50
2019-05-18T20:28:24.341Z,49.80
2019-05-18T20:30:58.435Z,49.80
2019-05-18T20:33:32.154Z,50.10
2019-05-18T20:36:05.940Z,50.00
2019-05-18T20:38:39.648Z,50.20
2019-05-18T20:41:13.342Z,50.50
2019-05-18T20:43:47.054Z,50.40
2019-05-18T20:46:20.832Z,50.80
2019-05-18T20:48:55.022Z,50.80
2019-05-18T20:51:28.630Z,50.90
2019-05-18T20:54:04.354Z,51.10
2019-05-18T20:56:38.010Z,51.20
2019-05-18T20:59:11.917Z,51.40
2019-05-18T21:01:45.676Z,51.40
2019-05-18T21:04:19.478Z,51.20
2019-05-18T21:06:53.186Z,51.20
2019-05-18T21:09:26.875Z,51.10
2019-05-18T21:12:00.734Z,51.20
2019-05-18T21:14:34.535Z,51.30
2019-05-18T21:17:08.207Z,51.50
2019-05-18T21:19:41.843Z,51.60
2019-05-18T21:22:15.509Z,51.90
2019-05-18T21:24:49.283Z,52.10
2019-05-18T21:27:23.009Z,52.40
2019-05-18T21:29:56.641Z,52.50
2019-05-18T21:32:30.346Z,52.60
2019-05-18T21:35:04.501Z,52.90
2019-05-18T21:37:38.315Z,53.00
2019-05-18T21:40:12.680Z,53.10
2019-05-18T21:42:46.423Z,53.20
2019-05-18T21:45:20.061Z,53.50
2019-05-18T21:47:53.901Z,53.60
2019-05-18T21:50:27.587Z,53.70
2019-05-18T21:53:01.260Z,53.70
2019-05-18T21:55:35.257Z,53.90
2019-05-18T21:58:12.047Z,54.00
2019-05-18T22:00:46.146Z,54.10
2019-05-18T22:03:19.891Z,54.10
2019-05-18T22:05:53.646Z,54.10
2019-05-18T22:08:27.286Z,54.10
2019-05-18T22:11:01.003Z,54.20
2019-05-18T22:13:34.613Z,54.20
2019-05-18T22:16:08.475Z,54.10
2019-05-18T22:18:42.194Z,54.20
2019-05-18T22:21:16.315Z,54.30
2019-05-18T22:23:50.117Z,54.40
2019-05-18T22:26:23.851Z,54.60
2019-05-18T22:28:57.661Z,54.70
2019-05-18T22:31:31.363Z,54.80
2019-05-18T22:34:05.126Z,55.00
2019-05-18T22:36:39.285Z,55.30
2019-05-18T22:39:13.032Z,55.30
2019-05-18T22:41:46.686Z,55.30
2019-05-18T22:44:20.425Z,55.30
2019-05-18T22:46:54.106Z,55.40
2019-05-18T22:49:27.998Z,55.50
2019-05-18T22:52:01.985Z,55.60
2019-05-18T22:54:35.813Z,55.70
2019-05-18T22:57:09.492Z,55.90
2019-05-18T22:59:43.198Z,55.90
2019-05-18T23:02:16.919Z,56.00
2019-05-18T23:04:50.585Z,56.20
2019-05-18T23:07:24.617Z,56.10
2019-05-18T23:09:58.207Z,56.10
2019-05-18T23:12:31.970Z,56.00
2019-05-18T23:15:05.997Z,56.00
2019-05-18T23:17:39.761Z,56.10
2019-05-18T23:20:13.650Z,56.10
2019-05-18T23:22:47.551Z,56.30
2019-05-18T23:25:21.470Z,56.30
2019-05-18T23:27:55.384Z,56.50
2019-05-18T23:30:29.022Z,56.60
2019-05-18T23:33:02.782Z,56.50
2019-05-18T23:35:36.537Z,56.70
2019-05-18T23:38:10.346Z,56.70
2019-05-18T23:40:44.070Z,56.70
2019-05-18T23:43:17.913Z,56.80
2019-05-18T23:45:51.734Z,57.00
2019-05-18T23:48:25.414Z,56.90
2019-05-18T23:50:59.342Z,57.10
2019-05-18T23:53:33.070Z,57.10
2019-05-18T23:56:07.025Z,57.30
2019-05-18T23:58:40.716Z,57.40
